地図

経路データ

SID SEASON NUMBER BASIN SUBBASIN NAME ISO_TIME NATURE LAT LON WMO_WIND WMO_PRES WMO_AGENCY TRACK_TYPE DIST2LAND LANDFALL IFLAG USA_AGENCY USA_ATCF_ID USA_LAT USA_LON USA_RECORD USA_STATUS USA_WIND USA_PRES USA_SSHS USA_R34_NE USA_R34_SE USA_R34_SW USA_R34_NW USA_R50_NE USA_R50_SE USA_R50_SW USA_R50_NW USA_R64_NE USA_R64_SE USA_R64_SW USA_R64_NW USA_POCI USA_ROCI USA_RMW USA_EYE TOKYO_LAT TOKYO_LON TOKYO_GRADE TOKYO_WIND TOKYO_PRES TOKYO_R50_DIR TOKYO_R50_LONG TOKYO_R50_SHORT TOKYO_R30_DIR TOKYO_R30_LONG TOKYO_R30_SHORT TOKYO_LAND CMA_LAT CMA_LON CMA_CAT CMA_WIND CMA_PRES HKO_LAT HKO_LON HKO_CAT HKO_WIND HKO_PRES NEWDELHI_LAT NEWDELHI_LON NEWDELHI_GRADE NEWDELHI_WIND NEWDELHI_PRES NEWDELHI_CI NEWDELHI_DP NEWDELHI_POCI REUNION_LAT REUNION_LON REUNION_TYPE REUNION_WIND REUNION_PRES REUNION_TNUM REUNION_CI REUNION_RMW REUNION_R34_NE REUNION_R34_SE REUNION_R34_SW REUNION_R34_NW REUNION_R50_NE REUNION_R50_SE REUNION_R50_SW REUNION_R50_NW REUNION_R64_NE REUNION_R64_SE REUNION_R64_SW REUNION_R64_NW BOM_LAT BOM_LON BOM_TYPE BOM_WIND BOM_PRES BOM_TNUM BOM_CI BOM_RMW BOM_R34_NE BOM_R34_SE BOM_R34_SW BOM_R34_NW BOM_R50_NE BOM_R50_SE BOM_R50_SW BOM_R50_NW BOM_R64_NE BOM_R64_SE BOM_R64_SW BOM_R64_NW BOM_ROCI BOM_POCI BOM_EYE BOM_POS_METHOD BOM_PRES_METHOD NADI_LAT NADI_LON NADI_CAT NADI_WIND NADI_PRES WELLINGTON_LAT WELLINGTON_LON WELLINGTON_WIND WELLINGTON_PRES DS824_LAT DS824_LON DS824_STAGE DS824_WIND DS824_PRES TD9636_LAT TD9636_LON TD9636_STAGE TD9636_WIND TD9636_PRES TD9635_LAT TD9635_LON TD9635_WIND TD9635_PRES TD9635_ROCI NEUMANN_LAT NEUMANN_LON NEUMANN_CLASS NEUMANN_WIND NEUMANN_PRES MLC_LAT MLC_LON MLC_CLASS MLC_WIND MLC_PRES USA_GUST BOM_GUST BOM_GUST_PER REUNION_GUST REUNION_GUST_PER USA_SEAHGT USA_SEARAD_NE USA_SEARAD_SE USA_SEARAD_SW USA_SEARAD_NW STORM_SPEED STORM_DIR
1910270S17120 1911 45 SI WA NOT_NAMED 1910-09-26 12:00:00 NR -16.8000 120.100 main 230 226 __________O___ -1 -16.8000 120.100 7 3 192
1910270S17120 1911 45 SI WA NOT_NAMED 1910-09-26 15:00:00 NR -16.9500 120.052 main 222 222 __________P___ -1 -16.9500 120.052 7 3 197
1910270S17120 1911 45 SI WA NOT_NAMED 1910-09-26 18:00:00 NR -17.1000 120.003 main 229 227 __________P___ -1 -17.1000 120.003 7 3 197
1910270S17120 1911 45 SI WA NOT_NAMED 1910-09-26 21:00:00 NR -17.2500 119.952 main 227 225 __________P___ -1 -17.2500 119.952 7 3 197
1910270S17120 1911 45 SI WA NOT_NAMED 1910-09-27 00:00:00 NR -17.4000 119.900 main 232 226 __________O___ -1 -17.4000 119.900 7 3 199
1910270S17120 1911 45 SI WA NOT_NAMED 1910-09-27 03:00:00 NR -17.5500 119.846 main 235 224 __________P___ -1 -17.5500 119.846 7 3 199
1910270S17120 1911 45 SI WA NOT_NAMED 1910-09-27 06:00:00 NR -17.7000 119.793 main 224 219 __________P___ -1 -17.7000 119.793 7 3 197
1910270S17120 1911 45 SI WA NOT_NAMED 1910-09-27 09:00:00 NR -17.8500 119.743 main 225 217 __________P___ -1 -17.8500 119.743 7 3 196
1910270S17120 1911 45 SI WA NOT_NAMED 1910-09-27 12:00:00 NR -18.0000 119.700 main 217 217 __________O___ -1 -18.0000 119.700 7 2 203
1910270S17120 1911 45 SI WA NOT_NAMED 1910-09-27 15:00:00 NR -18.0282 119.664 main 217 211 __________P___ -1 -18.0282 119.664 7 1 219
1910270S17120 1911 45 SI WA NOT_NAMED 1910-09-27 18:00:00 NR -18.0752 119.635 main 211 200 __________P___ -1 -18.0752 119.635 7 2 190
1910270S17120 1911 45 SI WA NOT_NAMED 1910-09-27 21:00:00 NR -18.2346 119.614 main 200 158 __________P___ -1 -18.2346 119.614 7 5 184
1910270S17120 1911 45 SI WA NOT_NAMED 1910-09-28 00:00:00 NR -18.6000 119.600 main 158 94 __________O___ -1 -18.6000 119.600 7 10 184
1910270S17120 1911 45 SI WA NOT_NAMED 1910-09-28 03:00:00 NR -19.2562 119.543 main 84 0 __________P___ -1 -19.2562 119.543 7 15 184
1910270S17120 1911 45 SI WA NOT_NAMED 1910-09-28 06:00:00 NR -20.1229 119.499 main 0 0 __________P___ -1 -20.1229 119.499 7 19 181
1910270S17120 1911 45 SI WA NOT_NAMED 1910-09-28 09:00:00 NR -21.1281 119.506 main 0 0 __________P___ -1 -21.1281 119.506 7 21 177
1910270S17120 1911 45 SI WA NOT_NAMED 1910-09-28 12:00:00 NR -22.2000 119.600 main 0 0 __________O___ -1 -22.2000 119.600 7 22 172
1910270S17120 1911 45 SI WA NOT_NAMED 1910-09-28 15:00:00 NR -23.3262 119.827 main 0 0 __________P___ -1 -23.3262 119.827 7 24 168
1910270S17120 1911 45 SI WA NOT_NAMED 1910-09-28 18:00:00 NR -24.4852 120.147 main 0 0 __________P___ -1 -24.4852 120.147 7 23 164
1910270S17120 1911 45 SI WA NOT_NAMED 1910-09-28 21:00:00 NR -25.5765 120.518 main 0 0 __________P___ -1 -25.5765 120.518 7 21 161
1910270S17120 1911 45 SI WA NOT_NAMED 1910-09-29 00:00:00 NR -26.5000 120.900 main 0 0 __________O___ -1 -26.5000 120.900 7 17 158
1910270S17120 1911 45 SI WA NOT_NAMED 1910-09-29 03:00:00 NR -27.1328 121.216 main 0 0 __________P___ -1 -27.1328 121.216 7 12 153
1910270S17120 1911 45 SI WA NOT_NAMED 1910-09-29 06:00:00 NR -27.5938 121.532 main 0 0 __________P___ -1 -27.5938 121.532 7 10 145
1910270S17120 1911 45 SI WA NOT_NAMED 1910-09-29 09:00:00 NR -27.9579 121.856 main 0 0 __________P___ -1 -27.9579 121.856 7 9 140
1910270S17120 1911 45 SI WA NOT_NAMED 1910-09-29 12:00:00 NR -28.3000 122.200 main 0 0 __________O___ -1 -28.3000 122.200 7 10 142
1910270S17120 1911 45 SI WA NOT_NAMED 1910-09-29 15:00:00 NR -28.7351 122.536 main 0 0 __________P___ -1 -28.7351 122.536 7 11 145
1910270S17120 1911 45 SI WA NOT_NAMED 1910-09-29 18:00:00 NR -29.1631 122.898 main 0 0 __________P___ -1 -29.1631 122.898 7 11 141
1910270S17120 1911 45 SI WA NOT_NAMED 1910-09-29 21:00:00 NR -29.5846 123.311 main 0 0 __________P___ -1 -29.5846 123.311 7 11 137
1910270S17120 1911 45 SI WA NOT_NAMED 1910-09-30 00:00:00 NR -30.0000 123.800 main 0 0 __________O___ -1 -30.0000 123.800 7 11 124
1910270S17120 1911 45 SI WA NOT_NAMED 1910-09-30 03:00:00 NR -30.2179 124.407 main 0 0 __________P___ -1 -30.2179 124.407 7 12 112
1910270S17120 1911 45 SI WA NOT_NAMED 1910-09-30 06:00:00 NR -30.4574 125.085 main 0 0 __________P___ -1 -30.4574 125.085 7 14 119
1910270S17120 1911 45 SI WA NOT_NAMED 1910-09-30 09:00:00 NR -30.8679 125.795 main 0 0 __________P___ -1 -30.8679 125.795 7 17 133
1910270S17120 1911 45 SI WA NOT_NAMED 1910-09-30 12:00:00 NR -31.6000 126.500 main 0 0 __________O___ -1 -31.6000 126.500 7 23 154
1910270S17120 1911 45 SI WA NOT_NAMED 1910-09-30 15:00:00 NR -32.9282 126.948 main 66 66 __________P___ -1 -32.9282 126.948 7 31 165
1910270S17120 1911 45 SI WA NOT_NAMED 1910-09-30 18:00:00 NR -34.5680 127.429 main 257 257 __________P___ -1 -34.5680 127.429 7 35 164
1910270S17120 1911 45 SI WA NOT_NAMED 1910-09-30 21:00:00 NR -36.2995 128.117 main 453 453 __________P___ -1 -36.2995 128.117 7 36 157
1910270S17120 1911 45 SI WA NOT_NAMED 1910-10-01 00:00:00 NR -37.9000 129.200 main 642 622 __________O___ -1 -37.9000 129.200 7 36 144
1910270S17120 1911 45 SI WA NOT_NAMED 1910-10-01 03:00:00 NR -39.1911 130.817 main 621 560 __________P___ -1 -39.1911 130.817 7 37 129
1910270S17120 1911 45 SI WA NOT_NAMED 1910-10-01 06:00:00 NR -40.1910 132.898 main 563 546 __________P___ -1 -40.1910 132.898 7 39 117
1910270S17120 1911 45 SP EA NOT_NAMED 1910-10-01 09:00:00 NR -40.9688 135.307 main 556 465 __________P___ -1 -40.9688 135.307 7 40 110
1910270S17120 1911 45 SP EA NOT_NAMED 1910-10-01 12:00:00 NR -41.6000 137.900 main 461 __________O___ -1 -41.6000 137.900 7 41 108

IBTrACS Databaseについて

本データベースは、米国NOAAが公開する1842年以降の世界の熱帯低気圧のベストトラックデータアーカイブInternational Best Track Archive for Climate Stewardship (IBTrACS)を、ウェブで閲覧しやすい形式に変換したものです。

最終更新日:2021-11-26